»·PEaware :: N1192H L52-L88

N1192H :: L52-L88

FLIGHT INFORMATION

Flight Status: Arrived
Operator: Privately registered:
United States
More flights under this callsign
Pilot: Joseph H. (37230)
Aircraft: CESSNA 152 AEROBAT
(C152)
More flights by this aircraft type
Origin: L52 Oceano Co
United States
Destination: L88 New Cuyama
United States
More flights between these airports :: More routes between these airports
Route: -WYNNR-
File this flight plan on PilotEdge
Remarks:
Altitude:
(Current/Filed)
5,500ft
Speed:
(Current/Filed)
100kts
Departed: 14-Nov-21 10:48 AM
Arrived: 14-Nov-21 11:30 AM
Distance/Time
Traveled:
47nm/0:42
Distance/Time
To Go:
Arrived

Flight Plot

Page will automatically refresh every two minutes.

Flight plan parsing failed; only flown route is shown


Map Options




Map Legend


Flown Route
Filed Route
Departure Airport
Arrival Airport
Navaid (VOR, NDB)
Fix

Horizontal Profiles

Position Reports

Time Latitude Longitude Heading Altitude Ground
Speed
14-Nov-21 10:23 35.102153 -120.622308 16 17ft 0kts
14-Nov-21 10:25 35.102153 -120.622308 16 17ft 0kts
14-Nov-21 10:29 35.102153 -120.622308 16 17ft 0kts
14-Nov-21 10:30 35.102153 -120.622308 16 17ft 0kts
14-Nov-21 10:32 35.102153 -120.622309 16 17ft 0kts
14-Nov-21 10:33 35.102153 -120.622308 16 17ft 0kts
14-Nov-21 10:34 35.102153 -120.622309 16 17ft 0kts
14-Nov-21 10:35 35.102153 -120.622309 16 17ft 0kts
14-Nov-21 10:36 35.102156 -120.622307 16 17ft 0kts
14-Nov-21 10:37 35.101248 -120.621831 128 18ft 8kts
14-Nov-21 10:43 35.102311 -120.622608 26 17ft 0kts
14-Nov-21 10:44 35.102311 -120.622608 26 17ft 0kts
14-Nov-21 10:45 35.102028 -120.622176 195 17ft 7kts
14-Nov-21 10:46 35.101631 -120.622457 212 18ft 10kts
14-Nov-21 10:47 35.099558 -120.619505 70 16ft 3kts
14-Nov-21 10:48 35.102676 -120.624455 303 45ft 70kts
14-Nov-21 10:49 35.118925 -120.634612 23 696ft 83kts
14-Nov-21 10:50 35.139448 -120.624939 16 1430ft 77kts
14-Nov-21 10:51 35.161244 -120.620682 5 2060ft 81kts
14-Nov-21 10:52 35.181538 -120.610204 36 2692ft 81kts
14-Nov-21 10:53 35.195864 -120.589359 61 3314ft 75kts
14-Nov-21 10:54 35.201285 -120.563526 84 3866ft 84kts
14-Nov-21 10:54 35.200001 -120.540619 99 4360ft 83kts
14-Nov-21 10:56 35.193977 -120.508875 106 5084ft 83kts
14-Nov-21 10:57 35.182259 -120.485116 124 5626ft 82kts
14-Nov-21 10:58 35.168236 -120.463030 139 6075ft 82kts
14-Nov-21 10:58 35.152155 -120.445052 143 6115ft 99kts
14-Nov-21 10:59 35.146047 -120.414038 95 6027ft 99kts
14-Nov-21 11:01 35.142784 -120.374984 102 5863ft 98kts
14-Nov-21 11:02 35.136615 -120.342324 109 5725ft 98kts
14-Nov-21 11:02 35.132715 -120.315291 94 5670ft 98kts
14-Nov-21 11:03 35.132095 -120.282219 90 5613ft 94kts
14-Nov-21 11:04 35.129943 -120.250266 101 5633ft 95kts
14-Nov-21 11:06 35.123083 -120.214685 105 5606ft 89kts
14-Nov-21 11:06 35.120970 -120.189908 88 5654ft 88kts
14-Nov-21 11:07 35.123438 -120.159959 100 5665ft 88kts
14-Nov-21 11:08 35.121723 -120.130081 92 5733ft 88kts
14-Nov-21 11:09 35.119387 -120.100129 98 5777ft 87kts
14-Nov-21 11:10 35.112407 -120.070469 111 5788ft 94kts
14-Nov-21 11:11 35.102907 -120.040238 108 5713ft 94kts
14-Nov-21 11:12 35.100189 -120.008076 93 5669ft 95kts
14-Nov-21 11:13 35.101169 -119.975596 87 5598ft 96kts
14-Nov-21 11:14 35.100413 -119.943228 96 5568ft 95kts
14-Nov-21 11:15 35.099870 -119.911701 102 5583ft 91kts
14-Nov-21 11:16 35.092016 -119.882642 112 5631ft 89kts
14-Nov-21 11:17 35.083808 -119.853705 136 5660ft 87kts
14-Nov-21 11:18 35.060322 -119.846463 150 5535ft 91kts
14-Nov-21 11:19 35.041268 -119.826224 142 5064ft 90kts
14-Nov-21 11:20 35.020470 -119.809402 142 4622ft 89kts
14-Nov-21 11:21 35.000649 -119.791493 142 4207ft 88kts
14-Nov-21 11:22 34.980486 -119.773840 149 3777ft 88kts
14-Nov-21 11:23 34.960444 -119.756577 137 3338ft 89kts
14-Nov-21 11:24 34.948521 -119.733296 111 3211ft 76kts
14-Nov-21 11:25 34.941950 -119.708707 95 3192ft 75kts
14-Nov-21 11:26 34.934485 -119.684193 112 3102ft 79kts
14-Nov-21 11:27 34.926970 -119.660738 68 2918ft 65kts
14-Nov-21 11:28 34.936201 -119.676460 298 2312ft 72kts
14-Nov-21 11:29 34.942560 -119.690870 9 2151ft 14kts
14-Nov-21 11:30 34.942767 -119.690379 17 2152ft 0kts
14-Nov-21 11:31 34.942767 -119.690379 17 2152ft 0kts
14-Nov-21 11:32 34.942767 -119.690379 17 2152ft 0kts
14-Nov-21 11:33 34.942767 -119.690379 17 2152ft 0kts
14-Nov-21 11:34 34.942767 -119.690379 17 2152ft 0kts
14-Nov-21 11:35 34.942767 -119.690379 17 2152ft 0kts
14-Nov-21 11:36 34.942767 -119.690379 17 2152ft 0kts

Navigation Log

Ident Type
Flight plan parsing failed, navigation log unavailable